Terminal Aerodrome Forecast
Issued by NWS

Home | Current Version | Previous Version | Text Only | Print | Product List | Glossary On
Versions: 1 2 3 4 5 6 7 8 9 10 11 12 13 14 15
000
FTUS42 KMLB 251733
TAFSUA
TAF
KSUA 251733Z 2518/2618 18008KT P6SM SCT035 BKN050
     FM252000 16008KT P6SM VCTS SCT035CB BKN060
     FM260200 29007KT P6SM SCT060 BKN200
     FM260900 24008KT P6SM SCT005 BKN020
     FM261400 24012G20KT P6SM VCSH BKN035 OVC100=

USA.gov is the U.S. government's official web portal to all federal, state and local government web resources and services.